Time;durP1;ratioP1;P1;durP2;ratioP2;P2;SDS_P1;SDS_P2;PMS_P1;PMS_P2;Temp;Humidity;BMP_temperature;BMP_pressure;BME280_temperature;BME280_humidity;BME280_pressure;Samples;Min_cycle;Max_cycle;Signal;HPM_P1;HPM_P2
2023/08/27 04:30:09;;;;;;;0.00;0.00;;;13.90;81.40;;;;;;6072889;23;20103;-82
2023/08/27 04:32:34;;;;;;;0.10;0.10;;;13.90;81.30;;;;;;4983036;28;20125;-82
2023/08/27 04:35:00;;;;;;;0.08;0.08;;;13.80;81.40;;;;;;4984737;28;20061;-82
2023/08/27 04:37:25;;;;;;;0.00;0.00;;;13.80;81.50;;;;;;4994392;28;20423;-82
2023/08/27 04:39:51;;;;;;;0.10;0.10;;;13.80;81.30;;;;;;4996781;28;20045;-82
2023/08/27 04:42:17;;;;;;;0.10;0.10;;;13.80;81.40;;;;;;4981037;28;20098;-82
2023/08/27 04:44:42;;;;;;;0.10;0.10;;;13.80;81.40;;;;;;4981168;28;20101;-82
2023/08/27 04:47:08;;;;;;;0.10;0.10;;;13.70;81.40;;;;;;4980893;28;20061;-81
2023/08/27 04:49:33;;;;;;;0.00;0.00;;;13.70;81.40;;;;;;4990096;28;20515;-82
2023/08/27 04:51:59;;;;;;;0.10;0.10;;;13.70;81.20;;;;;;5000280;28;20081;-82
2023/08/27 04:54:25;;;;;;;0.10;0.10;;;13.70;81.40;;;;;;4982773;28;20023;-81
2023/08/27 04:56:50;;;;;;;0.10;0.10;;;13.60;81.60;;;;;;4980722;28;20501;-81
2023/08/27 04:59:16;;;;;;;0.00;0.00;;;13.50;81.70;;;;;;4980841;28;20489;-82
2023/08/27 05:01:41;;;;;;;0.10;0.10;;;13.50;82.00;;;;;;4986921;28;20098;-82
2023/08/27 05:04:07;;;;;;;0.10;0.10;;;13.50;82.00;;;;;;4983478;28;20030;-81
2023/08/27 05:06:33;;;;;;;0.10;0.10;;;13.50;82.00;;;;;;4990619;28;20033;-82
2023/08/27 05:08:58;;;;;;;0.10;0.10;;;13.60;81.90;;;;;;5001332;28;20026;-82
2023/08/27 05:11:24;;;;;;;0.10;0.10;;;13.60;81.90;;;;;;5001237;28;20507;-82
2023/08/27 05:13:49;;;;;;;0.00;0.00;;;13.60;81.80;;;;;;5000678;28;20030;-82
2023/08/27 05:16:15;;;;;;;0.17;0.10;;;13.60;81.70;;;;;;5000487;28;20077;-82
2023/08/27 05:18:41;;;;;;;0.10;0.10;;;13.70;81.70;;;;;;5000087;28;20085;-82
2023/08/27 05:21:06;;;;;;;0.10;0.10;;;13.60;81.70;;;;;;5000182;28;20030;-82
2023/08/27 05:23:32;;;;;;;0.08;0.08;;;13.60;81.80;;;;;;4987415;28;20862;-82
2023/08/27 05:25:57;;;;;;;0.00;0.00;;;13.50;82.00;;;;;;4998430;28;20082;-82
2023/08/27 05:28:23;;;;;;;0.10;0.10;;;13.60;82.00;;;;;;5000147;28;20026;-82
2023/08/27 05:30:49;;;;;;;0.13;0.10;;;13.50;81.80;;;;;;4997011;28;20401;-82
2023/08/27 05:33:14;;;;;;;0.10;0.10;;;13.60;82.00;;;;;;4994539;28;20073;-82
2023/08/27 05:35:40;;;;;;;0.05;0.05;;;13.50;82.00;;;;;;5000174;28;20057;-81
2023/08/27 05:38:06;;;;;;;0.10;0.10;;;13.50;82.20;;;;;;4999895;28;20026;-82
2023/08/27 05:40:31;;;;;;;0.10;0.10;;;13.50;82.50;;;;;;4991820;28;20034;-82
2023/08/27 05:42:58;;;;;;;0.10;0.10;;;13.50;82.40;;;;;;4999354;28;20030;-82
2023/08/27 05:45:23;;;;;;;0.08;0.08;;;13.60;82.40;;;;;;4999783;28;20030;-81
2023/08/27 05:47:49;;;;;;;0.10;0.10;;;13.60;82.10;;;;;;4998447;28;20101;-82
2023/08/27 05:50:14;;;;;;;0.10;0.10;;;13.60;82.30;;;;;;4999178;28;20056;-81
2023/08/27 05:52:40;;;;;;;0.22;0.10;;;13.60;82.30;;;;;;4987542;28;20116;-82
2023/08/27 05:55:06;;;;;;;0.20;0.20;;;13.70;82.20;;;;;;4990718;28;20041;-82
2023/08/27 05:57:32;;;;;;;0.10;0.10;;;13.70;82.20;;;;;;4990634;28;20018;-82
2023/08/27 05:59:57;;;;;;;0.10;0.10;;;13.80;82.10;;;;;;4989308;28;20478;-89
2023/08/27 06:02:24;;;;;;;0.10;0.10;;;13.80;82.00;;;;;;4991464;28;20018;-83
2023/08/27 06:04:49;;;;;;;0.00;0.00;;;13.80;82.00;;;;;;4989280;28;20039;-84
2023/08/27 06:07:15;;;;;;;0.10;0.10;;;13.80;82.00;;;;;;4989192;28;20444;-83
2023/08/27 06:09:40;;;;;;;0.17;0.10;;;13.90;82.00;;;;;;4998402;28;20031;-88
2023/08/27 06:12:06;;;;;;;0.10;0.10;;;13.90;82.00;;;;;;4999216;28;20080;-81
2023/08/27 06:14:32;;;;;;;0.10;0.10;;;13.90;82.00;;;;;;4997471;28;20018;-78
2023/08/27 06:16:58;;;;;;;0.10;0.10;;;13.90;81.80;;;;;;4999681;28;20031;-80
2023/08/27 06:19:23;;;;;;;0.10;0.10;;;14.00;81.70;;;;;;4998711;28;20023;-80
2023/08/27 06:21:49;;;;;;;0.10;0.10;;;14.00;81.70;;;;;;4997462;28;20022;-80
2023/08/27 06:24:14;;;;;;;0.10;0.10;;;14.00;81.60;;;;;;4997473;28;20034;-81
2023/08/27 06:26:40;;;;;;;0.10;0.10;;;14.00;81.60;;;;;;4997769;28;20061;-84
2023/08/27 06:29:06;;;;;;;0.10;0.10;;;14.00;81.80;;;;;;4998197;28;20552;-78
2023/08/27 06:31:32;;;;;;;0.00;0.00;;;14.00;81.70;;;;;;4989687;28;20502;-81
2023/08/27 06:33:57;;;;;;;0.05;0.05;;;14.00;81.70;;;;;;5006397;28;20085;-83
2023/08/27 06:36:23;;;;;;;0.10;0.10;;;14.00;81.70;;;;;;4994717;28;20109;-78
2023/08/27 06:38:49;;;;;;;0.08;0.08;;;14.00;81.70;;;;;;4979158;28;20035;-79
2023/08/27 06:41:14;;;;;;;0.10;0.10;;;14.00;81.60;;;;;;4993413;28;20098;-82
2023/08/27 06:43:40;;;;;;;0.03;0.03;;;14.10;81.80;;;;;;4998366;28;20044;-84
2023/08/27 06:46:05;;;;;;;0.10;0.10;;;14.00;81.90;;;;;;4998703;28;20018;-85
2023/08/27 06:48:32;;;;;;;0.03;0.03;;;14.10;82.00;;;;;;4990919;28;20034;-86
2023/08/27 06:50:58;;;;;;;0.10;0.10;;;14.10;82.30;;;;;;4986570;28;20454;-83
2023/08/27 06:53:23;;;;;;;0.10;0.10;;;14.10;82.50;;;;;;4979359;28;20030;-83
2023/08/27 06:56:05;;;;;;;0.00;0.00;;;14.20;82.80;;;;;;5094476;28;20483;-80
2023/08/27 06:58:31;;;;;;;0.10;0.10;;;14.20;82.70;;;;;;5094031;28;20021;-81
2023/08/27 07:00:56;;;;;;;0.10;0.10;;;14.30;82.60;;;;;;5093174;28;20024;-81
2023/08/27 07:03:22;;;;;;;0.10;0.10;;;14.40;82.70;;;;;;5090165;28;20020;-81
2023/08/27 07:05:48;;;;;;;0.10;0.08;;;14.40;82.60;;;;;;5065079;28;20383;-81
2023/08/27 07:08:14;;;;;;;0.10;0.10;;;14.50;82.20;;;;;;5074421;28;20025;-81
2023/08/27 07:10:39;;;;;;;0.10;0.10;;;14.50;82.60;;;;;;5081930;28;20028;-80
2023/08/27 07:13:05;;;;;;;0.10;0.10;;;14.50;82.60;;;;;;5084948;28;20035;-82
2023/08/27 07:15:31;;;;;;;0.10;0.10;;;14.60;82.30;;;;;;5071574;28;20056;-82
2023/08/27 07:17:57;;;;;;;0.10;0.10;;;14.70;82.50;;;;;;5076072;28;20024;-87
2023/08/27 07:20:23;;;;;;;0.00;0.00;;;14.90;82.30;;;;;;5094724;28;20024;-86
2023/08/27 07:22:49;;;;;;;0.10;0.10;;;14.90;82.00;;;;;;5076652;28;20093;-82
2023/08/27 07:25:16;;;;;;;0.10;0.10;;;15.10;81.90;;;;;;5086579;28;20025;-80
2023/08/27 07:27:41;;;;;;;0.00;0.00;;;15.30;81.60;;;;;;5073775;28;20020;-84
2023/08/27 07:30:07;;;;;;;0.10;0.10;;;15.30;81.40;;;;;;5055614;28;20490;-87
2023/08/27 07:32:33;;;;;;;0.00;0.00;;;15.30;81.40;;;;;;5077021;28;20825;-87
2023/08/27 07:34:59;;;;;;;0.10;0.10;;;15.40;81.30;;;;;;5090996;28;20140;-80
2023/08/27 07:37:24;;;;;;;0.10;0.10;;;15.40;81.10;;;;;;5093308;28;20016;-85
2023/08/27 07:39:50;;;;;;;0.10;0.10;;;15.40;81.60;;;;;;5074539;28;20107;-85
2023/08/27 07:42:16;;;;;;;0.10;0.10;;;15.50;81.70;;;;;;5083119;28;20020;-84
2023/08/27 07:44:41;;;;;;;0.10;0.10;;;15.60;81.60;;;;;;5087050;28;20507;-84
2023/08/27 07:47:07;;;;;;;0.10;0.10;;;15.70;81.60;;;;;;5084078;28;20039;-85
2023/08/27 07:49:32;;;;;;;0.08;0.08;;;15.70;82.00;;;;;;5080175;28;20103;-85
2023/08/27 07:51:58;;;;;;;0.00;0.00;;;15.80;81.50;;;;;;5079811;28;20436;-85
2023/08/27 07:54:24;;;;;;;0.10;0.10;;;16.00;81.40;;;;;;5072390;28;20053;-88
2023/08/27 07:56:49;;;;;;;0.10;0.10;;;16.70;80.40;;;;;;5081042;28;20013;-85
2023/08/27 07:59:16;;;;;;;0.15;0.15;;;17.70;77.80;;;;;;5074157;28;20246;-84
2023/08/27 08:01:41;;;;;;;0.08;0.08;;;18.80;75.70;;;;;;5093424;28;20765;-84
2023/08/27 08:04:08;;;;;;;0.10;0.10;;;19.90;72.60;;;;;;5070238;28;20032;-90
2023/08/27 08:06:42;;;;;;;0.20;0.20;;;21.10;69.20;;;;;;5064846;28;20028;-86
2023/08/27 08:09:08;;;;;;;0.30;0.30;;;22.00;66.20;;;;;;5059655;28;20082;-87
2023/08/27 08:11:34;;;;;;;0.30;0.30;;;22.90;63.10;;;;;;5067709;28;20112;-86
2023/08/27 08:13:59;;;;;;;0.30;0.30;;;23.30;61.90;;;;;;5067724;28;20042;-85
2023/08/27 08:16:25;;;;;;;0.20;0.20;;;22.80;62.30;;;;;;5076693;28;20048;-86
2023/08/27 08:18:51;;;;;;;0.20;0.20;;;22.20;64.10;;;;;;5073952;28;20029;-83
2023/08/27 08:21:19;;;;;;;0.20;0.20;;;21.60;64.80;;;;;;5063077;28;20025;-87
2023/08/27 08:23:45;;;;;;;0.25;0.25;;;21.40;66.50;;;;;;5063505;28;20025;-89
2023/08/27 08:29:33;;;;;;;0.00;0.00;;;21.90;65.40;;;;;;5073499;28;20098;-86
2023/08/27 08:31:59;;;;;;;0.00;0.00;;;22.30;64.70;;;;;;5062112;28;20025;-84
2023/08/27 08:34:28;;;;;;;0.00;0.00;;;22.60;63.10;;;;;;5059551;28;20033;-85
2023/08/27 08:36:54;;;;;;;0.10;0.10;;;23.00;62.60;;;;;;5079281;28;20024;-85
2023/08/27 08:39:20;;;;;;;0.38;0.38;;;23.70;60.50;;;;;;5063968;28;20556;-88
2023/08/27 08:42:09;;;;;;;0.40;0.40;;;24.40;58.20;;;;;;5072905;28;20020;-86
2023/08/27 08:45:04;;;;;;;0.40;0.40;;;25.30;57.00;;;;;;5034942;28;20044;-87
2023/08/27 08:47:30;;;;;;;0.40;0.40;;;25.70;55.90;;;;;;5032383;28;20028;-94
2023/08/27 08:49:57;;;;;;;0.20;0.20;;;25.90;53.80;;;;;;5066107;28;20032;-90
2023/08/27 08:52:26;;;;;;;0.10;0.10;;;25.90;53.90;;;;;;5076194;28;20048;-89
2023/08/27 08:54:54;;;;;;;0.00;0.00;;;25.70;55.10;;;;;;5063039;28;20053;-88
2023/08/27 08:57:23;;;;;;;0.00;0.00;;;25.00;56.90;;;;;;5059920;28;20032;-91
2023/08/27 08:59:49;;;;;;;0.00;0.00;;;24.30;58.40;;;;;;5052648;28;20029;-90
2023/08/27 09:02:15;;;;;;;0.00;0.00;;;23.80;60.70;;;;;;5053002;28;20029;-89
2023/08/27 09:04:42;;;;;;;0.00;0.00;;;23.20;61.30;;;;;;5075707;28;20062;-87
2023/08/27 09:07:09;;;;;;;0.10;0.10;;;22.60;62.90;;;;;;5060667;28;20110;-85
2023/08/27 09:09:38;;;;;;;0.00;0.00;;;22.40;63.00;;;;;;5046961;28;20036;-88
2023/08/27 09:12:07;;;;;;;0.05;0.05;;;22.20;64.80;;;;;;5046428;28;20025;-86
2023/08/27 09:14:35;;;;;;;0.10;0.10;;;22.40;65.20;;;;;;5066750;28;20028;-84
2023/08/27 09:17:01;;;;;;;0.00;0.00;;;22.30;64.60;;;;;;5056441;28;20047;-86
2023/08/27 09:19:26;;;;;;;0.10;0.10;;;22.30;65.60;;;;;;5067698;28;20502;-87
2023/08/27 09:21:52;;;;;;;0.00;0.00;;;22.30;65.40;;;;;;5074723;28;20498;-87
2023/08/27 09:24:18;;;;;;;0.00;0.00;;;22.30;65.30;;;;;;5062048;28;20028;-88
2023/08/27 09:26:44;;;;;;;0.10;0.10;;;22.30;66.70;;;;;;5067914;28;20104;-88
2023/08/27 09:29:09;;;;;;;0.10;0.10;;;22.30;66.20;;;;;;5038406;28;20033;-87
2023/08/27 09:31:39;;;;;;;0.00;0.00;;;22.60;65.40;;;;;;5039924;28;20021;-87
2023/08/27 09:34:05;;;;;;;0.10;0.10;;;22.70;65.20;;;;;;5076748;28;20020;-87
2023/08/27 09:36:37;;;;;;;0.00;0.00;;;23.00;64.60;;;;;;5059017;28;20501;-88
2023/08/27 09:39:13;;;;;;;0.00;0.00;;;23.00;63.50;;;;;;5054336;28;20120;-87
2023/08/27 09:41:40;;;;;;;0.10;0.10;;;23.00;64.30;;;;;;5055062;28;20082;-86
2023/08/27 09:44:07;;;;;;;0.00;0.00;;;23.20;64.00;;;;;;5038576;28;20122;-86
2023/08/27 09:46:36;;;;;;;0.00;0.00;;;23.00;62.40;;;;;;5039038;28;20024;-87
2023/08/27 09:49:05;;;;;;;0.00;0.00;;;22.80;64.50;;;;;;5056478;28;20032;-87
2023/08/27 09:51:36;;;;;;;0.00;0.00;;;22.80;64.90;;;;;;5069342;28;20027;-86
2023/08/27 09:54:15;;;;;;;0.00;0.00;;;22.70;64.00;;;;;;5058602;28;20050;-87
2023/08/27 09:56:44;;;;;;;0.10;0.10;;;22.70;64.50;;;;;;5074883;28;20059;-86
2023/08/27 09:59:10;;;;;;;0.10;0.10;;;22.80;63.90;;;;;;5056305;28;20048;-86
2023/08/27 10:01:35;;;;;;;0.00;0.00;;;23.00;64.30;;;;;;5057501;28;20058;-86
2023/08/27 10:04:07;;;;;;;0.00;0.00;;;22.90;63.10;;;;;;5064990;28;20032;-86
2023/08/27 10:06:36;;;;;;;0.00;0.00;;;22.70;62.60;;;;;;5056320;28;20064;-86
2023/08/27 10:09:03;;;;;;;0.00;0.00;;;22.70;63.80;;;;;;5055963;28;20021;-86
2023/08/27 10:11:31;;;;;;;0.00;0.00;;;22.60;63.60;;;;;;5072484;28;20012;-86
2023/08/27 10:13:58;;;;;;;0.10;0.10;;;22.60;63.80;;;;;;5064182;28;20029;-86
2023/08/27 10:16:25;;;;;;;0.00;0.00;;;22.80;64.70;;;;;;5038863;28;20044;-86
2023/08/27 10:18:52;;;;;;;0.00;0.00;;;23.10;62.90;;;;;;5052523;28;20021;-86
2023/08/27 10:21:18;;;;;;;0.03;0.03;;;23.10;63.90;;;;;;5076312;28;20021;-86
2023/08/27 10:23:44;;;;;;;0.00;0.00;;;22.90;63.70;;;;;;5076107;28;20074;-86
2023/08/27 10:26:11;;;;;;;0.00;0.00;;;22.70;62.70;;;;;;5084247;28;20028;-86
2023/08/27 10:28:38;;;;;;;0.00;0.00;;;22.40;63.90;;;;;;5075783;28;20059;-86
2023/08/27 10:31:05;;;;;;;0.00;0.00;;;21.90;64.00;;;;;;5070294;28;20029;-87
2023/08/27 10:33:31;;;;;;;0.00;0.00;;;21.40;67.60;;;;;;5073971;28;20024;-87
2023/08/27 10:36:03;;;;;;;0.00;0.00;;;20.30;76.50;;;;;;5057691;28;20129;-86
2023/08/27 10:38:35;;;;;;;0.00;0.00;;;20.00;77.20;;;;;;5074005;28;20028;-86
2023/08/27 10:41:02;;;;;;;0.05;0.05;;;19.70;76.10;;;;;;5056902;28;20032;-87
2023/08/27 10:43:33;;;;;;;0.00;0.00;;;19.80;75.70;;;;;;5053892;28;20395;-87
2023/08/27 10:46:14;;;;;;;0.00;0.00;;;19.80;75.80;;;;;;5057238;28;20502;-86
2023/08/27 10:48:40;;;;;;;0.10;0.10;;;20.00;76.50;;;;;;5075816;28;20044;-86
2023/08/27 10:51:13;;;;;;;0.10;0.10;;;20.40;75.80;;;;;;5053662;28;20032;-86
2023/08/27 10:53:40;;;;;;;0.10;0.10;;;21.10;75.50;;;;;;5054255;28;20084;-86
2023/08/27 10:56:30;;;;;;;0.10;0.10;;;21.30;74.40;;;;;;5037859;28;20087;-86
2023/08/27 10:58:57;;;;;;;0.00;0.00;;;21.30;73.70;;;;;;5068001;28;20029;-86
2023/08/27 11:01:23;;;;;;;0.10;0.10;;;21.00;72.80;;;;;;5075363;28;20028;-87
2023/08/27 11:04:03;;;;;;;0.08;0.08;;;20.80;73.30;;;;;;5075443;28;20037;-86
2023/08/27 11:06:35;;;;;;;0.00;0.00;;;20.90;73.50;;;;;;5055701;28;20082;-87
2023/08/27 11:09:01;;;;;;;0.00;0.00;;;21.00;73.40;;;;;;5037737;28;20032;-87
2023/08/27 11:11:27;;;;;;;0.00;0.00;;;21.10;73.40;;;;;;5037742;28;20379;-86
2023/08/27 11:14:08;;;;;;;0.00;0.00;;;21.20;73.50;;;;;;5055530;28;20039;-86
2023/08/27 11:16:44;;;;;;;0.10;0.10;;;21.30;74.00;;;;;;5055057;28;20013;-86
2023/08/27 11:19:11;;;;;;;0.00;0.00;;;21.40;73.40;;;;;;5055544;28;20024;-86
2023/08/27 11:21:48;;;;;;;0.10;0.10;;;21.30;72.90;;;;;;5037550;28;20021;-86
2023/08/27 11:24:21;;;;;;;0.00;0.00;;;21.00;72.80;;;;;;5059987;28;20040;-86
2023/08/27 11:26:50;;;;;;;0.00;0.00;;;20.80;73.60;;;;;;5077298;28;20031;-86
2023/08/27 11:29:17;;;;;;;0.00;0.00;;;20.60;74.30;;;;;;5063803;28;20083;-86
2023/08/27 11:31:44;;;;;;;0.00;0.00;;;20.30;74.90;;;;;;5039688;28;20075;-86
2023/08/27 11:34:13;;;;;;;0.08;0.00;;;20.20;76.00;;;;;;5071629;28;20843;-86
2023/08/27 11:36:41;;;;;;;0.00;0.00;;;19.90;76.50;;;;;;5054112;28;20021;-86
2023/08/27 11:39:12;;;;;;;0.10;0.10;;;19.80;76.70;;;;;;5053980;28;20064;-86
2023/08/27 11:41:40;;;;;;;0.10;0.10;;;19.80;76.90;;;;;;5074606;28;20478;-86
2023/08/27 11:44:08;;;;;;;0.10;0.10;;;20.00;77.00;;;;;;5056274;28;20040;-86
2023/08/27 11:46:34;;;;;;;0.10;0.10;;;20.30;77.00;;;;;;5058750;28;20070;-86
2023/08/27 11:49:00;;;;;;;0.10;0.10;;;20.50;77.10;;;;;;5058618;28;20479;-86
2023/08/27 11:51:26;;;;;;;0.10;0.10;;;20.90;76.40;;;;;;5040567;28;20048;-86
2023/08/27 11:53:52;;;;;;;0.10;0.10;;;21.30;76.70;;;;;;5060469;28;20035;-86
2023/08/27 11:56:18;;;;;;;0.00;0.00;;;21.60;76.40;;;;;;5078855;28;20048;-86
2023/08/27 11:58:54;;;;;;;0.08;0.08;;;21.60;76.00;;;;;;5047630;28;20033;-85
2023/08/27 12:01:21;;;;;;;0.10;0.10;;;21.20;74.00;;;;;;5058639;28;20556;-84
2023/08/27 12:03:51;;;;;;;0.10;0.10;;;20.80;73.60;;;;;;5077839;28;20017;-85
2023/08/27 12:06:24;;;;;;;0.00;0.00;;;20.80;74.00;;;;;;5058964;28;20084;-86
2023/08/27 12:08:51;;;;;;;0.10;0.10;;;20.80;73.30;;;;;;5058377;28;20017;-86
2023/08/27 12:11:18;;;;;;;0.00;0.00;;;20.80;73.20;;;;;;5076881;28;20028;-85
2023/08/27 12:13:47;;;;;;;0.00;0.00;;;20.80;72.70;;;;;;5060262;28;20024;-84
2023/08/27 12:16:16;;;;;;;0.08;0.08;;;20.90;73.00;;;;;;5067642;28;20022;-85
2023/08/27 12:18:48;;;;;;;0.00;0.00;;;21.10;73.60;;;;;;5058296;28;20791;-85
2023/08/27 12:21:13;;;;;;;0.08;0.08;;;21.40;73.30;;;;;;5074919;28;20521;-86
2023/08/27 12:23:48;;;;;;;0.10;0.10;;;21.30;70.80;;;;;;5056963;28;20025;-85
2023/08/27 12:26:14;;;;;;;0.10;0.10;;;21.50;70.10;;;;;;5078622;28;20032;-85
2023/08/27 12:28:40;;;;;;;0.10;0.10;;;21.70;68.40;;;;;;5079695;28;20028;-84
2023/08/27 12:31:05;;;;;;;0.10;0.10;;;21.80;68.80;;;;;;5071064;28;20246;-85
2023/08/27 12:33:41;;;;;;;0.00;0.00;;;21.90;68.60;;;;;;5077997;28;20024;-85
2023/08/27 12:36:07;;;;;;;0.10;0.10;;;21.90;68.70;;;;;;5060301;28;20735;-85
2023/08/27 12:38:33;;;;;;;0.10;0.10;;;21.70;67.20;;;;;;5071915;28;20021;-85
2023/08/27 12:41:00;;;;;;;0.05;0.05;;;21.40;68.70;;;;;;5070421;28;20395;-85
2023/08/27 12:43:26;;;;;;;0.10;0.10;;;21.20;69.10;;;;;;5055360;28;20029;-84
2023/08/27 12:45:52;;;;;;;0.00;0.00;;;21.20;69.70;;;;;;5070912;28;20078;-85
2023/08/27 12:48:18;;;;;;;0.03;0.03;;;21.20;69.80;;;;;;5077703;28;20042;-85
2023/08/27 12:50:44;;;;;;;0.00;0.00;;;21.20;68.30;;;;;;5076638;28;20033;-84
2023/08/27 12:53:09;;;;;;;0.10;0.10;;;21.30;68.10;;;;;;5059772;28;20025;-85
2023/08/27 12:55:35;;;;;;;0.10;0.10;;;21.60;67.00;;;;;;5056462;28;20057;-86
2023/08/27 12:58:01;;;;;;;0.00;0.00;;;21.60;67.10;;;;;;5052240;28;20609;-85
2023/08/27 13:00:27;;;;;;;0.00;0.00;;;21.80;66.50;;;;;;5037978;28;20137;-85
2023/08/27 13:02:52;;;;;;;0.10;0.10;;;21.90;66.50;;;;;;5042944;28;20453;-87
2023/08/27 13:05:18;;;;;;;0.00;0.00;;;22.00;65.60;;;;;;5037553;28;20061;-85
2023/08/27 13:07:44;;;;;;;0.00;0.00;;;22.00;64.90;;;;;;5036549;28;20052;-86
2023/08/27 13:10:09;;;;;;;0.00;0.00;;;22.00;63.50;;;;;;5035763;28;20033;-86
2023/08/27 13:12:35;;;;;;;0.00;0.00;;;21.90;63.30;;;;;;5037780;28;20026;-85
2023/08/27 13:15:03;;;;;;;0.00;0.00;;;21.80;64.00;;;;;;5037292;28;20402;-86
2023/08/27 13:17:29;;;;;;;0.00;0.00;;;21.60;61.50;;;;;;5037150;28;20495;-85
2023/08/27 13:19:55;;;;;;;0.10;0.10;;;21.60;62.80;;;;;;5037033;28;20026;-85
2023/08/27 13:22:21;;;;;;;0.10;0.10;;;21.70;62.70;;;;;;5037220;28;20032;-85
2023/08/27 13:24:46;;;;;;;0.00;0.00;;;21.70;61.60;;;;;;5051395;28;20025;-86
2023/08/27 13:27:12;;;;;;;0.00;0.00;;;22.00;60.60;;;;;;5061994;28;20021;-86
2023/08/27 13:29:37;;;;;;;0.10;0.10;;;22.20;60.50;;;;;;5056655;28;20021;-85
2023/08/27 13:32:04;;;;;;;0.03;0.03;;;22.00;60.70;;;;;;5057073;28;20455;-86
2023/08/27 13:34:29;;;;;;;0.00;0.00;;;21.80;57.70;;;;;;5039695;28;20029;-86
2023/08/27 13:36:55;;;;;;;0.00;0.00;;;21.80;58.40;;;;;;5037043;28;20033;-85
2023/08/27 13:39:21;;;;;;;0.00;0.00;;;21.60;58.10;;;;;;5036696;28;20032;-87
2023/08/27 13:41:46;;;;;;;0.10;0.10;;;21.70;58.70;;;;;;5054666;28;20032;-86
2023/08/27 13:44:12;;;;;;;0.10;0.10;;;21.60;57.80;;;;;;5056841;28;20039;-86
2023/08/27 13:46:38;;;;;;;0.13;0.10;;;21.90;58.20;;;;;;5054586;28;20107;-86
2023/08/27 13:49:06;;;;;;;0.00;0.00;;;22.20;56.60;;;;;;5056487;28;20514;-86
2023/08/27 13:51:32;;;;;;;0.10;0.10;;;22.00;57.20;;;;;;5055558;28;20047;-87
2023/08/27 13:53:57;;;;;;;0.10;0.10;;;21.70;58.40;;;;;;5045164;28;20460;-86
2023/08/27 13:56:23;;;;;;;0.00;0.00;;;21.50;58.70;;;;;;5038698;28;20028;-86
2023/08/27 13:58:49;;;;;;;0.00;0.00;;;21.50;59.70;;;;;;5050211;28;20036;-86
2023/08/27 14:01:14;;;;;;;0.10;0.10;;;21.60;60.20;;;;;;5076516;28;20092;-86
2023/08/27 14:03:40;;;;;;;0.00;0.00;;;21.90;57.80;;;;;;5076051;28;20059;-86
2023/08/27 14:06:06;;;;;;;0.10;0.10;;;22.00;57.20;;;;;;5064433;28;20033;-87
2023/08/27 14:08:32;;;;;;;0.00;0.00;;;22.10;57.20;;;;;;5056136;28;20029;-86
2023/08/27 14:10:57;;;;;;;0.00;0.00;;;22.10;58.00;;;;;;5067836;28;20069;-86
2023/08/27 14:13:23;;;;;;;0.00;0.00;;;22.10;58.00;;;;;;5076139;28;20608;-86
2023/08/27 14:15:49;;;;;;;0.00;0.00;;;22.00;56.50;;;;;;5076247;28;20028;-86
2023/08/27 14:18:15;;;;;;;0.00;0.00;;;21.90;57.10;;;;;;5075842;28;20025;-86
2023/08/27 14:20:40;;;;;;;0.10;0.10;;;21.90;57.10;;;;;;5064067;28;20510;-86
2023/08/27 14:23:06;;;;;;;0.08;0.08;;;22.00;58.00;;;;;;5038652;28;20037;-87
2023/08/27 14:25:32;;;;;;;0.03;0.03;;;22.00;57.70;;;;;;5058656;28;20017;-86
2023/08/27 14:27:58;;;;;;;0.00;0.00;;;22.10;57.80;;;;;;5037718;28;20048;-86
2023/08/27 14:30:23;;;;;;;0.00;0.00;;;22.30;56.70;;;;;;5054496;28;20074;-86
2023/08/27 14:32:49;;;;;;;0.10;0.10;;;22.30;57.10;;;;;;5066387;28;20028;-87
2023/08/27 14:35:15;;;;;;;0.10;0.10;;;22.20;56.00;;;;;;5037807;28;20029;-86
2023/08/27 14:37:41;;;;;;;0.00;0.00;;;22.10;57.30;;;;;;5037872;28;20583;-86
2023/08/27 14:40:07;;;;;;;0.10;0.10;;;22.00;57.00;;;;;;5043092;28;20029;-86
2023/08/27 14:42:34;;;;;;;0.10;0.10;;;22.10;55.80;;;;;;5070147;28;20021;-87
2023/08/27 14:44:59;;;;;;;0.05;0.05;;;22.10;57.80;;;;;;5055487;28;20043;-85
2023/08/27 14:47:25;;;;;;;0.00;0.00;;;22.00;57.20;;;;;;5056052;28;20494;-86
2023/08/27 14:49:50;;;;;;;0.10;0.10;;;21.90;57.20;;;;;;5064465;28;20498;-86
2023/08/27 14:52:16;;;;;;;0.00;0.00;;;21.90;58.40;;;;;;5053418;28;20036;-87
2023/08/27 14:54:44;;;;;;;0.00;0.00;;;21.90;58.50;;;;;;5037786;28;20053;-87
2023/08/27 14:57:09;;;;;;;0.00;0.00;;;21.70;56.70;;;;;;5037795;28;20037;-87
2023/08/27 14:59:40;;;;;;;0.10;0.10;;;21.80;58.20;;;;;;5055889;28;20028;-86
2023/08/27 15:02:08;;;;;;;0.08;0.08;;;21.80;57.40;;;;;;5043225;28;20031;-87
2023/08/27 15:04:34;;;;;;;0.10;0.10;;;21.90;58.30;;;;;;5053124;28;20408;-87
2023/08/27 15:07:02;;;;;;;0.00;0.00;;;22.10;58.10;;;;;;5056114;28;20028;-87
2023/08/27 15:09:30;;;;;;;0.20;0.10;;;22.10;58.40;;;;;;5055640;28;20092;-86
2023/08/27 15:11:55;;;;;;;0.00;0.00;;;22.00;57.80;;;;;;5055715;28;20032;-86
2023/08/27 15:14:23;;;;;;;0.00;0.00;;;22.00;58.40;;;;;;5037317;28;20484;-86
2023/08/27 15:16:50;;;;;;;0.10;0.10;;;21.80;57.10;;;;;;5039525;28;20029;-86
2023/08/27 15:19:16;;;;;;;0.00;0.00;;;21.70;57.80;;;;;;5059366;28;20142;-87
2023/08/27 15:21:43;;;;;;;0.00;0.00;;;21.60;59.00;;;;;;5058258;28;20391;-86
2023/08/27 15:24:09;;;;;;;0.00;0.00;;;21.60;59.60;;;;;;5044934;28;20028;-86
2023/08/27 15:26:34;;;;;;;0.00;0.00;;;21.50;60.50;;;;;;5064744;28;20028;-86
2023/08/27 15:29:00;;;;;;;0.00;0.00;;;21.50;59.50;;;;;;5061477;28;20398;-86
2023/08/27 15:31:26;;;;;;;0.08;0.08;;;21.60;59.50;;;;;;5058006;28;20035;-84
2023/08/27 15:33:51;;;;;;;0.00;0.00;;;21.70;59.20;;;;;;5058914;28;20024;-86
2023/08/27 15:36:18;;;;;;;0.10;0.10;;;21.70;59.20;;;;;;5041224;28;20115;-86
2023/08/27 15:38:44;;;;;;;0.00;0.00;;;21.80;59.50;;;;;;5063015;28;20032;-84
2023/08/27 15:41:09;;;;;;;0.08;0.08;;;21.90;59.70;;;;;;5068209;28;20039;-87
2023/08/27 15:43:35;;;;;;;0.00;0.00;;;22.00;58.60;;;;;;5060678;28;20017;-88
2023/08/27 15:46:02;;;;;;;0.00;0.00;;;22.00;59.00;;;;;;5060766;28;20178;-85
2023/08/27 15:48:28;;;;;;;0.00;0.00;;;21.90;59.90;;;;;;5060281;28;20499;-92
2023/08/27 15:50:53;;;;;;;0.00;0.00;;;21.80;60.00;;;;;;5060614;28;20035;-90
2023/08/27 15:53:20;;;;;;;0.00;0.00;;;21.80;60.70;;;;;;5057600;28;20029;-88
2023/08/27 15:55:46;;;;;;;0.00;0.00;;;21.70;60.70;;;;;;5044710;28;20075;-88
2023/08/27 15:58:11;;;;;;;0.00;0.00;;;21.70;60.40;;;;;;5058920;28;21329;-85
2023/08/27 16:00:39;;;;;;;0.00;0.00;;;21.50;60.00;;;;;;5077735;28;20032;-84
2023/08/27 16:03:06;;;;;;;0.00;0.00;;;21.50;59.60;;;;;;5074011;28;20025;-91
2023/08/27 16:05:32;;;;;;;0.00;0.00;;;21.50;59.60;;;;;;5074959;28;20123;-85
2023/08/27 16:07:59;;;;;;;0.00;0.00;;;21.40;59.70;;;;;;5057751;28;20068;-84
2023/08/27 16:10:25;;;;;;;0.00;0.00;;;21.30;58.80;;;;;;5059301;28;20505;-90
2023/08/27 16:12:51;;;;;;;0.00;0.00;;;21.20;59.80;;;;;;5076428;28;20028;-83
2023/08/27 16:15:16;;;;;;;0.00;0.00;;;21.20;61.10;;;;;;5062169;28;20040;-86
2023/08/27 16:17:43;;;;;;;0.00;0.00;;;21.10;60.30;;;;;;5077234;28;20025;-87
2023/08/27 16:20:09;;;;;;;0.00;0.00;;;20.90;60.60;;;;;;5072349;28;20085;-85
2023/08/27 16:22:35;;;;;;;0.00;0.00;;;20.80;61.50;;;;;;5074987;28;20070;-89
2023/08/27 16:25:01;;;;;;;0.03;0.03;;;20.70;61.50;;;;;;5062008;28;20127;-83
2023/08/27 16:27:26;;;;;;;0.00;0.00;;;20.80;62.20;;;;;;5074784;28;20020;-86
2023/08/27 16:29:52;;;;;;;0.00;0.00;;;20.80;61.70;;;;;;5057173;28;20035;-86
2023/08/27 16:32:18;;;;;;;0.03;0.03;;;20.90;61.60;;;;;;5068732;28;20032;-87
2023/08/27 16:34:44;;;;;;;0.15;0.00;;;21.00;60.80;;;;;;5060879;28;20029;-84
2023/08/27 16:37:09;;;;;;;0.00;0.00;;;21.00;61.10;;;;;;5074547;28;20095;-88
2023/08/27 16:39:35;;;;;;;0.05;0.05;;;21.00;61.00;;;;;;5060343;28;20028;-92
2023/08/27 16:42:00;;;;;;;0.00;0.00;;;21.00;61.00;;;;;;5072613;28;20024;-84
2023/08/27 16:44:28;;;;;;;0.00;0.00;;;21.10;60.70;;;;;;5060632;28;20028;-86
2023/08/27 16:46:54;;;;;;;0.00;0.00;;;21.10;61.30;;;;;;5058115;28;20013;-90
2023/08/27 16:49:19;;;;;;;0.10;0.08;;;21.10;61.30;;;;;;5060324;28;20171;-84
2023/08/27 16:51:45;;;;;;;0.00;0.00;;;21.10;61.20;;;;;;5075344;28;20688;-84
2023/08/27 16:54:11;;;;;;;0.00;0.00;;;20.90;61.30;;;;;;5075969;28;20044;-87
2023/08/27 16:56:37;;;;;;;0.00;0.00;;;20.80;62.50;;;;;;5080374;28;20152;-86
2023/08/27 16:59:03;;;;;;;0.10;0.10;;;20.80;62.70;;;;;;5074631;28;20024;-83
2023/08/27 17:01:30;;;;;;;0.00;0.00;;;20.60;62.70;;;;;;5075111;28;20024;-81
2023/08/27 17:03:58;;;;;;;0.00;0.00;;;20.50;62.00;;;;;;5075510;28;20029;-90
2023/08/27 17:06:24;;;;;;;0.00;0.00;;;20.50;62.40;;;;;;5058670;28;20059;-89
2023/08/27 17:08:50;;;;;;;0.00;0.00;;;20.70;62.50;;;;;;5072402;28;20056;-86
2023/08/27 17:11:16;;;;;;;0.00;0.00;;;20.70;61.70;;;;;;5055912;28;20024;-90
2023/08/27 17:13:42;;;;;;;0.00;0.00;;;20.70;61.20;;;;;;5053432;28;20390;-88
2023/08/27 17:16:08;;;;;;;0.00;0.00;;;20.70;62.00;;;;;;5052386;28;20036;-92
2023/08/27 17:18:34;;;;;;;0.00;0.00;;;20.60;61.60;;;;;;5054921;28;20032;-87